Time;durP1;ratioP1;P1;durP2;ratioP2;P2;SDS_P1;SDS_P2;PMS_P1;PMS_P2;Temp;Humidity;BMP_temperature;BMP_pressure;BME280_temperature;BME280_humidity;BME280_pressure;Samples;Min_cycle;Max_cycle;Signal;HPM_P1;HPM_P2
2021/07/08 00:01:19;;;;;;;2.08;1.70;;;;;;;21.43;59.48;101562.06;5030298;28;20066;-74
2021/07/08 00:03:45;;;;;;;2.20;1.73;;;;;;;21.44;59.43;101562.91;5029685;28;20060;-75
2021/07/08 00:06:12;;;;;;;2.22;1.85;;;;;;;21.44;59.46;101570.91;5000554;28;20136;-74
2021/07/08 00:08:37;;;;;;;2.30;1.90;;;;;;;21.43;59.53;101571.91;5034383;28;20037;-74
2021/07/08 00:11:03;;;;;;;2.33;1.70;;;;;;;21.44;59.16;101569.06;5019311;28;20025;-74
2021/07/08 00:13:30;;;;;;;3.75;2.17;;;;;;;21.43;59.50;101564.75;5024058;28;20439;-73
2021/07/08 00:15:56;;;;;;;2.53;1.92;;;;;;;21.44;59.54;101568.22;5054085;28;20033;-75
2021/07/08 00:18:25;;;;;;;3.65;1.85;;;;;;;21.44;59.42;101570.91;5037253;28;20029;-74
2021/07/08 00:20:51;;;;;;;2.63;1.73;;;;;;;21.42;59.48;101567.59;5051772;28;20108;-74
2021/07/08 00:23:18;;;;;;;2.30;1.63;;;;;;;21.43;59.26;101567.41;5035543;28;20072;-75
2021/07/08 00:25:45;;;;;;;2.33;1.73;;;;;;;21.43;59.41;101572.75;5053567;28;20036;-73
2021/07/08 00:28:12;;;;;;;3.40;1.95;;;;;;;21.42;59.40;101557.75;5018499;28;20037;-73
2021/07/08 00:30:40;;;;;;;2.40;1.70;;;;;;;21.43;59.50;101570.06;5053760;28;20025;-73
2021/07/08 00:33:06;;;;;;;2.83;1.90;;;;;;;21.42;59.35;101563.09;5035571;28;20040;-73
2021/07/08 00:35:32;;;;;;;2.28;1.85;;;;;;;21.41;59.32;101564.09;5033669;28;20036;-73
2021/07/08 00:37:58;;;;;;;2.38;1.90;;;;;;;21.41;59.57;101566.78;5053418;28;20033;-74
2021/07/08 00:40:23;;;;;;;2.53;1.70;;;;;;;21.41;59.37;101563.28;5037628;28;20044;-74
2021/07/08 00:42:49;;;;;;;2.85;2.38;;;;;;;21.42;59.33;101567.59;5035072;28;20028;-74
2021/07/08 00:45:17;;;;;;;3.80;1.90;;;;;;;21.43;59.62;101572.75;5052919;28;20035;-74
2021/07/08 00:47:42;;;;;;;3.92;2.13;;;;;;;21.42;59.26;101564.94;5053034;28;20028;-73
2021/07/08 00:50:10;;;;;;;3.13;1.90;;;;;;;21.42;59.41;101567.59;5008898;28;20091;-73
2021/07/08 00:52:36;;;;;;;2.40;1.85;;;;;;;21.42;59.73;101567.59;5042253;28;20041;-73
2021/07/08 00:55:02;;;;;;;2.80;2.08;;;;;;;21.43;59.57;101580.75;5035321;28;20336;-74
2021/07/08 00:57:28;;;;;;;3.33;2.13;;;;;;;21.42;59.60;101572.94;5048147;28;20113;-74
2021/07/08 00:59:54;;;;;;;2.97;2.10;;;;;;;21.41;59.72;101574.78;5005051;28;20395;-74
2021/07/08 01:02:21;;;;;;;2.42;1.90;;;;;;;21.41;59.72;101572.13;5032565;28;20088;-74
2021/07/08 01:04:48;;;;;;;2.55;1.80;;;;;;;21.42;59.65;101581.78;5044711;28;20080;-74
2021/07/08 01:07:16;;;;;;;2.70;1.92;;;;;;;21.41;59.51;101576.63;5059275;28;20045;-74
2021/07/08 01:09:42;;;;;;;2.70;1.98;;;;;;;21.42;59.47;101576.44;5037374;28;20568;-74
2021/07/08 01:12:08;;;;;;;2.90;1.98;;;;;;;21.42;59.87;101579.09;5017914;28;20119;-73
2021/07/08 01:14:35;;;;;;;2.35;1.95;;;;;;;21.43;59.67;101578.09;5054349;28;20620;-74
2021/07/08 01:17:01;;;;;;;2.72;2.00;;;;;;;21.43;59.64;101580.75;5053026;28;20503;-74
2021/07/08 01:19:27;;;;;;;3.05;2.00;;;;;;;21.42;59.72;101578.28;5053014;28;20606;-74
2021/07/08 01:21:53;;;;;;;2.38;1.80;;;;;;;21.43;59.80;101582.59;5052875;28;20082;-74
2021/07/08 01:24:19;;;;;;;2.97;2.10;;;;;;;21.43;59.79;101578.09;5035167;28;20041;-74
2021/07/08 01:26:46;;;;;;;3.25;2.00;;;;;;;21.43;59.61;101591.44;5035957;28;20487;-73
2021/07/08 01:29:12;;;;;;;3.25;1.90;;;;;;;21.41;59.38;101589.97;5052943;28;20139;-74
2021/07/08 01:31:38;;;;;;;2.60;1.92;;;;;;;21.41;59.45;101588.13;5020382;28;20029;-74
2021/07/08 01:34:04;;;;;;;2.55;1.83;;;;;;;21.41;59.51;101590.81;5017916;28;20171;-74
2021/07/08 01:36:29;;;;;;;2.47;1.90;;;;;;;21.42;59.64;101581.78;5017907;28;20035;-74
2021/07/08 01:38:55;;;;;;;2.72;1.90;;;;;;;21.43;59.69;101590.59;5032705;28;20473;-74
2021/07/08 01:41:21;;;;;;;2.70;2.13;;;;;;;21.41;59.45;101592.63;5032118;28;20045;-73
2021/07/08 01:43:46;;;;;;;2.70;1.85;;;;;;;21.41;59.55;101595.31;5027894;28;20038;-73
2021/07/08 01:46:15;;;;;;;2.70;2.20;;;;;;;21.42;59.39;101603.13;5044786;28;20079;-73
2021/07/08 01:48:42;;;;;;;2.38;1.90;;;;;;;21.40;59.28;101594.47;5054334;28;20094;-74
2021/07/08 01:51:23;;;;;;;2.65;1.90;;;;;;;21.37;59.46;101594.88;5052218;28;20112;-73
2021/07/08 01:53:50;;;;;;;2.60;1.88;;;;;;;21.41;59.28;101606.81;5053747;28;20086;-73
2021/07/08 01:56:15;;;;;;;3.15;2.20;;;;;;;21.40;59.41;101599.81;5031949;28;20048;-73
2021/07/08 01:58:41;;;;;;;3.03;2.00;;;;;;;21.40;59.07;101597.16;5049542;28;20037;-74
2021/07/08 02:01:07;;;;;;;3.45;2.00;;;;;;;21.40;59.46;101601.66;5049438;28;20643;-73
2021/07/08 02:03:33;;;;;;;3.13;2.10;;;;;;;21.39;59.45;101600.84;5031313;28;20071;-73
2021/07/08 02:05:58;;;;;;;3.45;2.40;;;;;;;21.40;59.29;101607.00;5020496;28;20025;-74
2021/07/08 02:08:24;;;;;;;3.33;2.33;;;;;;;21.40;59.26;101599.81;5031399;28;20614;-74
2021/07/08 02:10:49;;;;;;;2.95;2.00;;;;;;;21.38;59.30;101593.84;5050941;28;20765;-74
2021/07/08 02:13:15;;;;;;;2.63;2.00;;;;;;;21.40;59.04;101596.34;5032214;28;20033;-74
2021/07/08 02:15:40;;;;;;;3.00;1.98;;;;;;;21.39;59.35;101598.16;5049088;28;20032;-73
2021/07/08 02:18:06;;;;;;;3.00;2.10;;;;;;;21.38;59.32;101598.38;5052477;28;20040;-74
2021/07/08 02:20:32;;;;;;;2.83;1.92;;;;;;;21.40;59.58;101602.50;5000362;28;20127;-74
2021/07/08 02:25:33;;;;;;;3.55;2.20;;;;;;;21.40;59.62;101593.66;5385897;22;20058;-66
2021/07/08 02:27:58;;;;;;;3.35;2.20;;;;;;;21.39;59.28;101595.50;4990942;28;20536;-65
2021/07/08 02:30:25;;;;;;;2.85;2.10;;;;;;;21.39;59.12;101598.16;4999105;28;20038;-65
2021/07/08 02:32:53;;;;;;;2.97;2.13;;;;;;;21.39;59.35;101606.19;5006075;28;20037;-65
2021/07/08 02:35:20;;;;;;;3.88;1.95;;;;;;;21.40;59.38;101609.69;4997887;28;20477;-65
2021/07/08 02:37:47;;;;;;;2.58;2.10;;;;;;;21.39;59.15;101597.34;5023065;28;20067;-66
2021/07/08 02:40:16;;;;;;;3.08;2.17;;;;;;;21.37;59.54;101602.88;5024891;28;20032;-65
2021/07/08 02:42:47;;;;;;;3.35;2.10;;;;;;;21.39;59.23;101597.34;5016902;28;20037;-65
2021/07/08 02:45:13;;;;;;;3.33;2.17;;;;;;;21.39;59.24;101603.50;5006412;28;20038;-65
2021/07/08 02:47:38;;;;;;;3.17;2.10;;;;;;;21.37;59.08;101605.53;5009378;28;20034;-65
2021/07/08 02:50:05;;;;;;;3.28;2.25;;;;;;;21.37;59.45;101605.53;5022079;28;20493;-65
2021/07/08 02:52:31;;;;;;;4.45;2.88;;;;;;;21.37;59.39;101602.06;5027057;28;20045;-65
2021/07/08 02:54:56;;;;;;;2.95;2.17;;;;;;;21.38;59.27;101598.38;5014965;28;20037;-65
2021/07/08 02:57:22;;;;;;;3.33;2.30;;;;;;;21.37;59.18;101608.22;5008972;28;20030;-65
2021/07/08 02:59:47;;;;;;;2.72;2.05;;;;;;;21.37;59.04;101608.22;5010586;28;20033;-65
2021/07/08 03:02:13;;;;;;;3.00;2.30;;;;;;;21.37;59.54;101610.88;4999520;28;20397;-65
2021/07/08 03:04:38;;;;;;;3.65;2.30;;;;;;;21.36;59.13;101609.22;5018218;28;20068;-65
2021/07/08 03:07:04;;;;;;;3.10;2.40;;;;;;;21.36;59.40;101606.56;5019605;28;20030;-65
2021/07/08 03:09:29;;;;;;;4.75;2.70;;;;;;;21.35;59.27;101604.91;5019945;28;20042;-65
2021/07/08 03:11:55;;;;;;;4.03;2.33;;;;;;;21.36;59.52;101603.91;5030397;28;20049;-65
2021/07/08 03:14:20;;;;;;;3.35;2.28;;;;;;;21.36;59.45;101609.22;5008263;28;20042;-65
2021/07/08 03:16:45;;;;;;;3.50;2.50;;;;;;;21.36;59.46;101606.56;5016013;28;20041;-65
2021/07/08 03:19:11;;;;;;;2.85;2.10;;;;;;;21.37;59.52;101610.06;5023157;28;20092;-65
2021/07/08 03:21:37;;;;;;;2.85;2.00;;;;;;;21.37;59.49;101607.38;5009089;28;20529;-65
2021/07/08 03:24:05;;;;;;;3.08;2.22;;;;;;;21.37;59.42;101608.22;5023205;28;20118;-64
2021/07/08 03:26:30;;;;;;;3.20;2.20;;;;;;;21.36;59.60;101611.91;5007462;28;20113;-65
2021/07/08 03:28:55;;;;;;;3.38;2.38;;;;;;;21.36;59.21;101605.75;5002393;28;20365;-65
2021/07/08 03:31:22;;;;;;;3.25;2.25;;;;;;;21.36;59.32;101609.22;5008662;28;20034;-65
2021/07/08 03:33:48;;;;;;;3.78;2.45;;;;;;;21.36;59.37;101613.75;5003913;28;20508;-65
2021/07/08 03:36:13;;;;;;;3.63;2.10;;;;;;;21.36;59.65;101619.09;5015176;28;20034;-65
2021/07/08 03:38:39;;;;;;;3.25;2.22;;;;;;;21.36;59.15;101622.56;5023468;28;20120;-65
2021/07/08 03:41:04;;;;;;;3.33;1.98;;;;;;;21.36;59.50;101621.75;5008709;28;20034;-65
2021/07/08 03:43:30;;;;;;;3.58;2.55;;;;;;;21.35;59.25;101620.94;5009508;28;20053;-65
2021/07/08 03:45:55;;;;;;;4.30;2.33;;;;;;;21.35;59.56;101623.59;4993805;28;20049;-65
2021/07/08 03:48:20;;;;;;;3.67;2.40;;;;;;;21.36;59.50;101625.25;5005836;28;20042;-65
2021/07/08 03:50:46;;;;;;;3.70;2.25;;;;;;;21.36;59.40;101627.91;5006427;28;20038;-65
2021/07/08 03:53:11;;;;;;;3.70;2.72;;;;;;;21.36;59.11;101632.44;5011573;28;20061;-65
2021/07/08 03:55:37;;;;;;;3.65;2.17;;;;;;;21.36;59.46;101635.09;4995313;28;20038;-65
2021/07/08 03:58:03;;;;;;;3.40;2.40;;;;;;;21.36;59.47;101627.91;5010889;28;20121;-65
2021/07/08 04:00:33;;;;;;;5.88;2.72;;;;;;;21.37;59.05;101628.75;5012929;28;20042;-65
2021/07/08 04:03:07;;;;;;;4.63;2.55;;;;;;;21.34;59.09;101632.63;5011079;28;20065;-65
2021/07/08 04:05:34;;;;;;;3.20;2.28;;;;;;;21.35;59.40;101634.28;5003454;28;20089;-64
2021/07/08 04:07:59;;;;;;;3.20;2.40;;;;;;;21.36;59.08;101630.59;5011472;28;20045;-65
2021/07/08 04:10:25;;;;;;;4.50;2.58;;;;;;;21.36;59.04;101635.94;5012840;28;20109;-65
2021/07/08 04:12:51;;;;;;;3.75;2.20;;;;;;;21.36;58.95;101638.59;5011933;28;20482;-65
2021/07/08 04:15:17;;;;;;;3.72;2.58;;;;;;;21.35;59.42;101636.94;5011405;28;20049;-65
2021/07/08 04:17:43;;;;;;;3.63;2.40;;;;;;;21.35;59.10;101634.28;4994848;28;20053;-65
2021/07/08 04:20:10;;;;;;;3.75;2.58;;;;;;;21.35;59.38;101644.94;5010177;28;20034;-66
2021/07/08 04:22:36;;;;;;;4.05;2.50;;;;;;;21.36;59.36;101648.44;5004107;28;20026;-65
2021/07/08 04:25:03;;;;;;;4.40;2.45;;;;;;;21.35;59.43;101644.94;5010027;28;20058;-66
2021/07/08 04:27:30;;;;;;;5.03;2.88;;;;;;;21.36;59.47;101648.44;5012199;28;20037;-65
2021/07/08 04:29:55;;;;;;;3.40;2.17;;;;;;;21.35;59.50;101647.63;5011798;28;20045;-65
2021/07/08 04:32:21;;;;;;;3.55;2.33;;;;;;;21.36;59.52;101648.44;5005633;28;20413;-65
2021/07/08 04:34:47;;;;;;;4.85;2.75;;;;;;;21.35;59.02;101649.47;5012367;28;20500;-66
2021/07/08 04:37:12;;;;;;;3.47;2.30;;;;;;;21.35;59.29;101655.63;5012177;28;20057;-66
2021/07/08 04:39:38;;;;;;;3.50;2.33;;;;;;;21.34;59.04;101655.81;5004599;28;20457;-65
2021/07/08 04:42:03;;;;;;;3.58;2.65;;;;;;;21.34;59.26;101656.63;5004749;28;20076;-65
2021/07/08 04:44:29;;;;;;;3.78;2.55;;;;;;;21.34;59.35;101653.97;5010823;28;20331;-67
2021/07/08 04:46:54;;;;;;;2.63;1.85;;;;;;;21.34;59.38;101655.81;5011695;28;20049;-67
2021/07/08 04:49:20;;;;;;;4.10;2.40;;;;;;;21.34;59.07;101653.16;4993582;28;20042;-67
2021/07/08 04:51:46;;;;;;;4.60;2.90;;;;;;;21.34;59.25;101663.81;5002420;28;20402;-67
2021/07/08 04:54:11;;;;;;;3.95;2.28;;;;;;;21.34;59.43;101661.97;5006063;28;20427;-66
2021/07/08 04:56:36;;;;;;;3.97;2.50;;;;;;;21.34;58.96;101663.81;5012192;28;20117;-67
2021/07/08 04:59:02;;;;;;;3.55;2.40;;;;;;;21.34;59.08;101669.16;5010164;28;20109;-66
2021/07/08 05:01:28;;;;;;;3.63;2.63;;;;;;;21.33;59.16;101668.34;5008855;28;20026;-67
2021/07/08 05:03:58;;;;;;;5.15;2.80;;;;;;;21.34;59.46;101674.50;5013534;28;20081;-66
2021/07/08 05:06:23;;;;;;;4.22;3.05;;;;;;;21.34;59.44;101677.16;5011064;28;20050;-67
2021/07/08 05:08:49;;;;;;;4.22;2.90;;;;;;;21.34;59.19;101674.50;4994296;28;20128;-67
2021/07/08 05:11:14;;;;;;;4.40;2.60;;;;;;;21.33;59.20;101675.50;5009248;28;20919;-66
2021/07/08 05:13:39;;;;;;;4.45;2.80;;;;;;;21.33;59.44;101679.00;5022096;28;20486;-67
2021/07/08 05:16:05;;;;;;;3.58;2.47;;;;;;;21.34;59.23;101687.84;5003341;28;20038;-66
2021/07/08 05:18:30;;;;;;;4.07;2.85;;;;;;;21.34;59.33;101685.16;5003387;28;20038;-67
2021/07/08 05:20:56;;;;;;;3.60;2.55;;;;;;;21.33;59.42;101692.34;5018354;28;20041;-66
2021/07/08 05:23:25;;;;;;;4.20;2.67;;;;;;;21.34;59.20;101695.84;5008865;28;20450;-66
2021/07/08 05:25:51;;;;;;;4.40;2.95;;;;;;;21.33;59.37;101695.03;4993475;28;20054;-66
2021/07/08 05:28:17;;;;;;;4.45;3.08;;;;;;;21.33;59.29;101692.34;5006204;28;20088;-66
2021/07/08 05:30:43;;;;;;;4.15;2.80;;;;;;;21.34;59.00;101698.53;5011418;28;20029;-66
2021/07/08 05:33:08;;;;;;;3.88;2.60;;;;;;;21.33;59.58;101700.34;5009269;28;20092;-67
2021/07/08 05:35:34;;;;;;;3.83;2.53;;;;;;;21.33;59.46;101697.69;5021710;28;20504;-67
2021/07/08 05:37:59;;;;;;;4.13;2.65;;;;;;;21.33;59.37;101702.19;5010600;28;20101;-67
2021/07/08 05:40:25;;;;;;;4.10;2.65;;;;;;;21.33;59.19;101700.34;4996794;28;20044;-67
2021/07/08 05:42:51;;;;;;;4.60;2.83;;;;;;;21.33;59.65;101703.03;5003116;28;20046;-66
2021/07/08 05:45:17;;;;;;;4.43;3.13;;;;;;;21.33;59.63;101702.19;4992571;28;20045;-66
2021/07/08 05:47:43;;;;;;;3.80;2.53;;;;;;;21.34;59.65;101709.19;5010491;28;20462;-66
2021/07/08 05:50:09;;;;;;;3.90;2.75;;;;;;;21.34;59.20;101711.88;5008829;28;20030;-66
2021/07/08 05:52:34;;;;;;;4.45;3.03;;;;;;;21.34;59.46;101714.53;5012985;28;20112;-66
2021/07/08 05:55:00;;;;;;;4.40;2.67;;;;;;;21.33;59.20;101715.53;5006865;28;20489;-67
2021/07/08 05:57:25;;;;;;;4.25;2.90;;;;;;;21.33;59.36;101710.22;5022830;28;20060;-66
2021/07/08 05:59:51;;;;;;;4.50;2.63;;;;;;;21.32;59.18;101717.38;4996688;28;20053;-67
2021/07/08 06:02:17;;;;;;;5.50;3.28;;;;;;;21.33;59.32;101724.38;5009601;28;20033;-66
2021/07/08 06:04:42;;;;;;;3.90;2.58;;;;;;;21.33;59.39;101729.72;5009127;28;20485;-66
2021/07/08 06:07:08;;;;;;;4.07;2.80;;;;;;;21.32;59.49;101728.06;5008437;28;20046;-66
2021/07/08 06:09:34;;;;;;;4.43;3.00;;;;;;;21.33;59.19;101727.03;5005563;28;20121;-66
2021/07/08 06:11:59;;;;;;;5.18;2.85;;;;;;;21.32;59.38;101728.06;5020498;28;20030;-66
2021/07/08 06:14:25;;;;;;;5.10;3.17;;;;;;;21.32;59.20;101730.72;5003702;28;20061;-66
2021/07/08 06:16:51;;;;;;;4.93;3.13;;;;;;;21.33;59.46;101734.22;5004490;28;20661;-66
2021/07/08 06:19:16;;;;;;;4.40;2.80;;;;;;;21.32;59.37;101738.75;5002056;28;20052;-66
2021/07/08 06:21:41;;;;;;;4.43;2.72;;;;;;;21.33;59.34;101740.41;5009804;28;20092;-66
2021/07/08 06:24:10;;;;;;;4.20;2.90;;;;;;;21.32;59.32;101744.06;5005365;28;20548;-66
2021/07/08 06:26:36;;;;;;;5.13;2.58;;;;;;;21.33;59.08;101750.25;5009593;28;20235;-66
2021/07/08 06:29:01;;;;;;;4.25;2.80;;;;;;;21.32;59.28;101752.09;4991368;28;20229;-66
2021/07/08 06:31:27;;;;;;;4.60;3.20;;;;;;;21.33;59.42;101752.91;5009751;28;20670;-66
2021/07/08 06:33:52;;;;;;;4.72;3.20;;;;;;;21.31;59.05;101749.59;4998286;28;20037;-66
2021/07/08 06:36:18;;;;;;;6.30;3.15;;;;;;;21.32;58.89;101754.75;5013993;28;20030;-66
2021/07/08 06:38:43;;;;;;;4.82;3.20;;;;;;;21.32;59.14;101760.09;5007719;28;20040;-66
2021/07/08 06:41:09;;;;;;;4.60;3.10;;;;;;;21.32;59.11;101754.75;4996085;28;20053;-66
2021/07/08 06:43:34;;;;;;;4.63;3.10;;;;;;;21.31;59.42;101758.44;5008531;28;20121;-66
2021/07/08 06:46:00;;;;;;;4.63;2.83;;;;;;;21.32;59.43;101757.41;5009097;28;20038;-67
2021/07/08 06:48:25;;;;;;;5.38;3.58;;;;;;;21.32;59.08;101760.09;5009244;28;20057;-67
2021/07/08 06:50:51;;;;;;;5.53;3.22;;;;;;;21.32;59.20;101759.25;4988285;28;20038;-66
2021/07/08 06:53:16;;;;;;;4.78;2.80;;;;;;;21.33;58.95;101764.41;5007284;28;20042;-67
2021/07/08 06:55:42;;;;;;;5.25;3.20;;;;;;;21.32;58.97;101760.09;5006882;28;20049;-67
2021/07/08 06:58:08;;;;;;;4.70;2.92;;;;;;;21.32;59.12;101765.44;4994658;28;20037;-66
2021/07/08 07:00:36;;;;;;;5.57;3.25;;;;;;;21.32;59.12;101768.09;4998154;28;20040;-66
2021/07/08 07:03:03;;;;;;;4.50;3.20;;;;;;;21.32;59.36;101764.59;5021559;28;20033;-66
2021/07/08 07:05:29;;;;;;;5.10;3.38;;;;;;;21.32;58.89;101754.75;4991939;28;20064;-66
2021/07/08 07:07:55;;;;;;;4.50;3.35;;;;;;;21.32;59.37;101764.59;5007172;28;20473;-66
2021/07/08 07:10:23;;;;;;;4.43;2.95;;;;;;;21.32;59.44;101764.59;5008041;28;20034;-66
2021/07/08 07:12:51;;;;;;;4.53;3.00;;;;;;;21.33;58.93;101764.41;5022435;28;20409;-66
2021/07/08 07:15:22;;;;;;;4.80;3.28;;;;;;;21.32;59.24;101765.44;4996380;28;20056;-66
2021/07/08 07:17:48;;;;;;;4.90;3.28;;;;;;;21.33;58.89;101763.59;5008908;28;20030;-66
2021/07/08 07:20:16;;;;;;;4.65;2.85;;;;;;;21.33;59.00;101775.09;4991393;28;20088;-66
2021/07/08 07:22:47;;;;;;;4.60;2.92;;;;;;;21.32;59.20;101768.09;4991298;28;20041;-66
2021/07/08 07:25:15;;;;;;;4.18;2.90;;;;;;;21.33;59.12;101771.59;4995129;28;20054;-66
2021/07/08 07:27:41;;;;;;;5.82;3.00;;;;;;;21.33;59.17;101775.09;5011213;28;20033;-67
2021/07/08 07:30:07;;;;;;;6.60;3.00;;;;;;;21.33;59.56;101771.59;5017835;28;20439;-65
2021/07/08 07:32:34;;;;;;;5.45;3.38;;;;;;;21.33;59.60;101780.44;5006369;28;20038;-66
2021/07/08 07:35:00;;;;;;;6.80;2.80;;;;;;;21.34;59.89;101778.59;5015547;28;20038;-67
2021/07/08 07:37:26;;;;;;;7.15;3.25;;;;;;;21.34;60.11;101782.09;5011667;28;20033;-70
2021/07/08 07:39:52;;;;;;;7.20;3.00;;;;;;;21.35;60.58;101774.91;5022601;28;20048;-67
2021/07/08 07:42:18;;;;;;;9.25;3.00;;;;;;;21.36;60.49;101776.56;5005395;28;20500;-65
2021/07/08 07:44:45;;;;;;;10.07;2.95;;;;;;;21.36;60.59;101772.03;5016485;28;20126;-66
2021/07/08 07:47:11;;;;;;;9.00;2.53;;;;;;;21.36;60.34;101774.72;5007506;28;20486;-66
2021/07/08 07:49:37;;;;;;;6.30;2.17;;;;;;;21.34;59.77;101770.56;5014457;28;20030;-68
2021/07/08 07:52:05;;;;;;;8.65;2.13;;;;;;;21.32;59.61;101777.94;5012783;28;20126;-66
2021/07/08 07:54:34;;;;;;;10.05;2.30;;;;;;;21.31;59.95;101782.47;5009340;28;20064;-66
2021/07/08 07:57:01;;;;;;;5.05;2.20;;;;;;;21.29;59.52;101779.13;4990468;28;20049;-66
2021/07/08 07:59:30;;;;;;;6.60;2.35;;;;;;;21.28;59.46;101790.81;4996576;28;20107;-66
2021/07/08 08:01:55;;;;;;;8.27;2.30;;;;;;;21.27;59.32;101788.31;4994547;28;20532;-66
2021/07/08 08:04:23;;;;;;;12.57;2.47;;;;;;;21.23;58.96;101787.84;5005550;28;20038;-66
2021/07/08 08:09:32;;;;;;;8.48;2.63;;;;;;;21.19;59.05;101790.06;4995076;28;20041;-66
2021/07/08 08:11:58;;;;;;;8.13;2.90;;;;;;;21.19;58.84;101794.56;5003667;28;20050;-66
2021/07/08 08:14:23;;;;;;;7.93;2.67;;;;;;;21.19;58.76;101797.22;5015302;28;20034;-66
2021/07/08 08:16:49;;;;;;;4.68;2.42;;;;;;;21.16;58.41;101794.94;5024235;28;20048;-66
2021/07/08 08:19:14;;;;;;;7.35;2.10;;;;;;;21.15;58.28;101801.28;5018425;28;20121;-66
2021/07/08 08:21:39;;;;;;;4.45;2.20;;;;;;;21.12;58.56;101797.13;5016298;28;20124;-66
2021/07/08 08:24:05;;;;;;;5.55;2.15;;;;;;;21.12;58.58;101805.13;5037722;28;20037;-65
2021/07/08 08:26:30;;;;;;;5.65;2.20;;;;;;;21.11;58.66;101802.63;5006245;28;20049;-66
2021/07/08 08:28:56;;;;;;;9.43;2.83;;;;;;;21.10;58.54;101798.31;5015213;28;20037;-66
2021/07/08 08:31:21;;;;;;;5.43;2.55;;;;;;;21.11;58.62;101802.63;5024230;28;20041;-66
2021/07/08 08:33:47;;;;;;;7.25;2.45;;;;;;;21.10;58.55;101806.31;5017213;28;20488;-66
2021/07/08 08:36:13;;;;;;;4.18;2.10;;;;;;;21.10;58.33;101798.31;4999001;28;20458;-66
2021/07/08 08:38:39;;;;;;;4.15;2.15;;;;;;;21.09;58.20;101802.81;5024428;28;20038;-66
2021/07/08 08:41:05;;;;;;;6.85;2.20;;;;;;;21.08;58.07;101808.34;4992464;28;20033;-66
2021/07/08 08:43:31;;;;;;;4.80;2.30;;;;;;;21.08;58.25;101814.50;5013347;28;20435;-66
2021/07/08 08:45:56;;;;;;;7.90;2.47;;;;;;;21.07;57.92;101810.19;5010074;28;20465;-65
2021/07/08 08:48:22;;;;;;;6.43;2.25;;;;;;;21.07;58.07;101812.84;5011765;28;20057;-66
2021/07/08 08:50:48;;;;;;;6.10;2.70;;;;;;;21.06;57.91;101815.72;5026462;28;20042;-66
2021/07/08 08:53:17;;;;;;;6.00;2.67;;;;;;;21.05;57.83;101817.53;5011336;28;20041;-66
2021/07/08 08:55:44;;;;;;;6.60;2.63;;;;;;;21.05;57.66;101819.38;5011885;28;20034;-66
2021/07/08 08:58:16;;;;;;;5.80;2.65;;;;;;;21.04;57.67;101821.22;5010343;28;20366;-65
2021/07/08 09:00:44;;;;;;;4.07;2.28;;;;;;;21.04;57.68;101825.72;5011973;28;20034;-66
2021/07/08 09:03:13;;;;;;;7.05;3.17;;;;;;;21.03;57.79;101824.06;5011134;28;20060;-65
2021/07/08 09:05:41;;;;;;;4.72;2.90;;;;;;;21.01;57.93;101821.59;5011936;28;20030;-66
2021/07/08 09:08:15;;;;;;;4.18;2.58;;;;;;;21.01;58.22;101826.09;5010929;28;20053;-66
2021/07/08 09:10:42;;;;;;;4.28;2.50;;;;;;;21.01;58.17;101837.59;5010871;28;20034;-66
2021/07/08 09:13:07;;;;;;;5.80;3.20;;;;;;;21.01;58.07;101826.94;4996831;28;20038;-66
2021/07/08 09:15:33;;;;;;;4.80;2.97;;;;;;;20.99;58.26;101826.28;5011659;28;20041;-66
2021/07/08 09:17:58;;;;;;;4.55;2.88;;;;;;;20.98;58.12;101827.25;5010561;28;20125;-66
2021/07/08 09:20:24;;;;;;;4.30;3.00;;;;;;;20.96;58.22;101825.78;5004229;28;20048;-66
2021/07/08 09:22:50;;;;;;;4.97;3.45;;;;;;;20.93;58.15;101825.16;5004630;28;20030;-66
2021/07/08 09:25:21;;;;;;;5.07;3.13;;;;;;;20.92;58.21;101828.00;5010395;28;20052;-65
2021/07/08 09:28:11;;;;;;;5.93;3.35;;;;;;;20.93;58.42;101830.50;5011147;28;20042;-66
2021/07/08 09:30:37;;;;;;;5.97;3.47;;;;;;;20.96;57.89;101833.78;5018714;28;20033;-66
2021/07/08 09:33:03;;;;;;;6.75;3.53;;;;;;;20.97;58.23;101836.28;5011074;28;20046;-68
2021/07/08 09:35:33;;;;;;;5.30;3.40;;;;;;;20.95;58.15;101827.63;5036077;28;20563;-66
2021/07/08 09:38:09;;;;;;;5.13;3.10;;;;;;;20.94;58.09;101828.66;5017324;28;20061;-65
2021/07/08 09:40:35;;;;;;;4.32;2.75;;;;;;;20.96;57.70;101829.28;5025478;28;20034;-66
2021/07/08 09:43:01;;;;;;;5.25;3.10;;;;;;;20.94;57.64;101831.31;4998575;28;20041;-66
2021/07/08 09:45:27;;;;;;;3.88;2.50;;;;;;;20.94;57.93;101836.66;4992926;28;20038;-66
2021/07/08 09:48:09;;;;;;;6.05;2.85;;;;;;;20.91;57.58;101827.19;5010022;28;20034;-67
2021/07/08 09:50:37;;;;;;;4.72;2.92;;;;;;;20.95;57.75;101832.97;5023730;28;20029;-65
2021/07/08 09:53:07;;;;;;;5.47;3.30;;;;;;;20.97;57.71;101840.78;5024576;28;20041;-66
2021/07/08 09:58:58;;;;;;;4.80;3.03;;;;;;;20.97;57.77;101848.78;5001378;28;20471;-66
2021/07/08 10:01:25;;;;;;;4.95;2.72;;;;;;;21.00;57.52;101846.63;5010415;28;20092;-66
2021/07/08 10:03:53;;;;;;;4.82;2.70;;;;;;;21.02;57.27;101849.09;5021394;28;20045;-65
2021/07/08 10:06:19;;;;;;;4.50;2.60;;;;;;;21.04;57.60;101853.25;5025892;28;20056;-66
2021/07/08 10:08:47;;;;;;;5.82;2.85;;;;;;;21.05;57.75;101849.56;5009074;28;20053;-65
2021/07/08 10:11:22;;;;;;;5.03;2.85;;;;;;;21.06;57.07;101845.06;5009779;28;20061;-65
2021/07/08 10:13:47;;;;;;;3.92;2.30;;;;;;;21.06;57.47;101850.38;5010084;28;20040;-65
2021/07/08 10:16:15;;;;;;;5.22;2.85;;;;;;;21.07;56.94;101855.53;5009270;28;20400;-66
2021/07/08 10:18:42;;;;;;;3.40;2.22;;;;;;;21.07;56.97;101849.38;5003341;28;20113;-68
2021/07/08 10:21:09;;;;;;;5.38;2.65;;;;;;;21.09;56.94;101855.34;5003463;28;20037;-68
2021/07/08 10:23:37;;;;;;;3.90;2.63;;;;;;;21.09;56.86;101855.34;5009511;28;20033;-66
2021/07/08 10:26:09;;;;;;;4.10;2.55;;;;;;;21.07;57.07;101854.72;5009634;28;20046;-66
2021/07/08 10:28:39;;;;;;;4.60;2.40;;;;;;;21.08;56.91;101857.19;4995363;28;20030;-65
2021/07/08 10:31:06;;;;;;;4.93;2.85;;;;;;;21.07;56.85;101852.88;5010143;28;20040;-66
2021/07/08 10:33:32;;;;;;;4.28;2.13;;;;;;;21.04;56.73;101858.56;5013150;28;20027;-66
2021/07/08 10:35:58;;;;;;;3.15;2.10;;;;;;;21.04;56.51;101855.91;5017237;28;20117;-67
2021/07/08 10:38:26;;;;;;;4.68;2.20;;;;;;;21.03;56.77;101851.59;5009531;28;20034;-64
2021/07/08 10:40:56;;;;;;;3.40;2.28;;;;;;;21.04;56.59;101857.75;4996097;28;20041;-64
2021/07/08 10:43:42;;;;;;;3.58;2.22;;;;;;;20.99;56.67;101854.78;5009283;28;20204;-64
2021/07/08 10:46:13;;;;;;;3.55;1.98;;;;;;;21.00;56.69;101862.63;5004066;28;20026;-64
2021/07/08 10:48:46;;;;;;;3.53;2.17;;;;;;;21.00;56.42;101864.47;5001537;28;20045;-64
2021/07/08 10:51:38;;;;;;;4.43;2.15;;;;;;;20.96;56.71;101860.47;5009309;28;20033;-64
2021/07/08 10:54:27;;;;;;;3.70;2.17;;;;;;;20.94;56.73;101860.66;5009449;28;20376;-64
2021/07/08 10:56:53;;;;;;;3.13;1.98;;;;;;;20.98;56.52;101864.63;5009379;28;20036;-65
2021/07/08 10:59:19;;;;;;;4.25;2.47;;;;;;;20.96;56.83;101861.31;5008265;28;20057;-66
2021/07/08 11:01:48;;;;;;;3.80;2.35;;;;;;;20.96;56.85;101860.47;5009981;28;20084;-66
2021/07/08 11:04:15;;;;;;;5.35;2.40;;;;;;;20.96;56.38;101863.13;5009268;28;20032;-65
2021/07/08 11:06:46;;;;;;;5.95;2.53;;;;;;;20.94;56.44;101863.31;5009165;28;20496;-66
2021/07/08 11:09:11;;;;;;;3.83;2.10;;;;;;;20.93;56.74;101862.50;4992032;28;20404;-66
2021/07/08 11:11:46;;;;;;;3.33;2.20;;;;;;;20.92;56.69;101868.00;5008739;28;20112;-66
2021/07/08 11:14:12;;;;;;;2.78;1.80;;;;;;;20.93;56.55;101870.50;4997210;28;20459;-66
2021/07/08 11:16:44;;;;;;;3.90;1.90;;;;;;;20.93;56.21;101867.84;5007449;28;20034;-66
2021/07/08 11:19:18;;;;;;;4.25;2.28;;;;;;;20.90;56.61;101865.53;5009195;28;20509;-67
2021/07/08 11:22:18;;;;;;;4.25;2.28;;;;;;;20.90;56.47;101870.88;5008598;28;20490;-66
2021/07/08 11:24:47;;;;;;;4.68;2.50;;;;;;;20.94;56.72;101868.66;4995155;28;20097;-66
2021/07/08 11:27:14;;;;;;;3.80;2.10;;;;;;;20.94;56.63;101860.66;5008991;28;20044;-66
2021/07/08 11:30:11;;;;;;;5.32;2.47;;;;;;;20.91;56.81;101869.84;5008764;28;20064;-65
2021/07/08 11:32:48;;;;;;;3.17;2.00;;;;;;;20.96;56.36;101866.63;4995285;28;20038;-65